Time;durP1;ratioP1;P1;durP2;ratioP2;P2;SDS_P1;SDS_P2;PMS_P1;PMS_P2;Temp;Humidity;BMP_temperature;BMP_pressure;BME280_temperature;BME280_humidity;BME280_pressure;Samples;Min_cycle;Max_cycle;Signal;HPM_P1;HPM_P2
2023/08/18 00:01:18;;;;;;;12.70;11.50;;;;;;;16.31;100.00;97838.47;6220368;28;20239;-94
2023/08/18 00:04:21;;;;;;;13.33;12.03;;;;;;;16.00;100.00;97787.47;6219390;28;20242;-94
2023/08/18 00:12:12;;;;;;;12.93;11.63;;;;;;;16.05;100.00;97826.16;6201555;28;20197;-96
2023/08/18 00:15:44;;;;;;;12.43;11.23;;;;;;;15.74;100.00;97776.03;6147446;28;20237;-95
2023/08/18 00:19:16;;;;;;;13.00;11.70;;;;;;;15.78;100.00;97799.66;6149588;28;20238;-94
2023/08/18 00:23:43;;;;;;;;;;;;;;;;;;;;;
2023/08/18 00:27:49;;;;;;;11.70;10.70;;;;;;;15.86;100.00;97810.66;6160648;28;20195;-96
2023/08/18 00:31:31;;;;;;;13.33;11.93;;;;;;;15.89;100.00;97836.16;6151205;29;20234;-94
2023/08/18 00:40:20;;;;;;;12.77;11.67;;;;;;;16.90;100.00;97982.19;6120914;29;20235;-93
2023/08/18 00:43:55;;;;;;;13.97;12.43;;;;;;;15.66;100.00;97797.25;6100700;29;20298;-94
2023/08/18 00:47:05;;;;;;;13.43;12.23;;;;;;;16.79;100.00;97967.94;6151982;28;20230;-95
2023/08/18 00:51:01;;;;;;;13.00;11.90;;;;;;;16.76;100.00;97963.91;6182149;28;20243;-96
2023/08/18 00:55:19;;;;;;;13.80;12.60;;;;;;;16.73;100.00;97969.03;6111038;29;20193;-94
2023/08/18 00:59:52;;;;;;;12.20;11.17;;;;;;;15.50;100.00;97796.44;6099780;29;20225;-94
2023/08/18 01:04:34;;;;;;;;;;;;;;;;;;;;;
2023/08/18 01:13:56;;;;;;;12.40;11.23;;;;;;;15.46;100.00;97788.13;6079231;29;20194;-95
2023/08/18 01:17:53;;;;;;;11.87;10.87;;;;;;;16.41;100.00;97920.97;6012284;29;20667;-94
2023/08/18 01:21:01;;;;;;;11.77;10.57;;;;;;;15.43;100.00;97774.44;5966445;29;20383;-93
2023/08/18 01:24:05;;;;;;;11.83;10.83;;;;;;;15.66;100.00;97794.56;5965998;29;20224;-94
2023/08/18 01:27:07;;;;;;;10.83;9.93;;;;;;;15.50;100.00;97777.66;6010495;29;20297;-93
2023/08/18 01:30:11;;;;;;;11.20;10.23;;;;;;;16.19;100.00;97881.75;6018116;29;20214;-94
2023/08/18 01:33:43;;;;;;;11.87;10.67;;;;;;;16.00;100.00;97853.84;6010925;29;20214;-93
2023/08/18 01:36:48;;;;;;;14.10;12.77;;;;;;;15.40;100.00;97761.56;6010177;29;20328;-94
2023/08/18 01:39:54;;;;;;;14.03;12.73;;;;;;;16.06;100.00;97866.22;6019027;29;20240;-93
2023/08/18 01:42:58;;;;;;;13.13;11.83;;;;;;;16.03;100.00;97874.03;6032296;29;20241;-94
2023/08/18 01:46:01;;;;;;;11.70;10.80;;;;;;;15.35;100.00;97769.63;6048680;29;20237;-93
2023/08/18 01:49:04;;;;;;;11.70;10.70;;;;;;;15.21;100.00;97754.06;6063366;28;20233;-94
2023/08/18 01:52:11;;;;;;;12.33;11.23;;;;;;;15.16;100.00;97748.69;6158594;28;20229;-93
2023/08/18 01:55:14;;;;;;;11.17;10.10;;;;;;;15.31;100.00;97779.28;6174343;28;20279;-94
2023/08/18 01:58:17;;;;;;;12.00;10.93;;;;;;;16.42;100.00;97941.41;6172156;28;20225;-94
2023/08/18 02:01:20;;;;;;;12.30;11.13;;;;;;;15.31;100.00;97787.34;6172770;28;20229;-94
2023/08/18 02:04:23;;;;;;;12.30;11.10;;;;;;;15.51;100.00;97832.94;6175152;28;20233;-94
2023/08/18 02:07:25;;;;;;;12.87;10.53;;;;;;;15.44;100.00;97801.00;6172946;28;20317;-93
2023/08/18 02:10:28;;;;;;;12.17;10.97;;;;;;;15.17;100.00;97757.53;6157899;28;20233;-94
2023/08/18 02:13:34;;;;;;;11.80;10.70;;;;;;;14.90;100.00;97714.91;6173439;28;20287;-94
2023/08/18 02:16:37;;;;;;;12.27;11.17;;;;;;;15.01;100.00;97737.97;6158667;28;20230;-93
2023/08/18 02:19:40;;;;;;;12.03;10.93;;;;;;;15.63;100.00;97836.22;6158885;28;20233;-93
2023/08/18 02:22:47;;;;;;;12.07;11.07;;;;;;;15.03;100.00;97762.66;6174364;28;20234;-93
2023/08/18 02:25:50;;;;;;;12.20;10.87;;;;;;;15.09;100.00;97747.38;6152397;28;20232;-94
2023/08/18 02:28:53;;;;;;;10.47;9.57;;;;;;;16.21;100.00;97916.47;6160460;28;20229;-94
2023/08/18 02:31:56;;;;;;;11.40;10.40;;;;;;;14.99;100.00;97737.44;6173398;28;20317;-93
2023/08/18 02:34:59;;;;;;;11.00;10.00;;;;;;;14.90;100.00;97710.34;6209605;28;20228;-93
2023/08/18 02:38:01;;;;;;;13.67;11.43;;;;;;;15.73;100.00;97841.56;6227506;28;20370;-93
2023/08/18 02:41:07;;;;;;;11.23;10.13;;;;;;;15.28;100.00;97783.31;6206482;28;20232;-94
2023/08/18 02:44:16;;;;;;;10.83;9.93;;;;;;;15.12;100.00;97766.44;6226650;28;20235;-94
2023/08/18 02:47:19;;;;;;;11.30;10.23;;;;;;;14.89;100.00;97732.06;6205757;28;20231;-92
2023/08/18 02:50:21;;;;;;;10.70;9.70;;;;;;;14.81;100.00;97724.56;6205718;28;20355;-94
2023/08/18 02:53:25;;;;;;;11.57;10.53;;;;;;;14.81;100.00;97729.91;6223169;28;20237;-94
2023/08/18 02:56:33;;;;;;;11.07;10.07;;;;;;;14.81;100.00;97717.31;6223922;28;20227;-93
2023/08/18 02:59:38;;;;;;;11.47;10.37;;;;;;;14.87;100.00;97740.38;6223525;28;20655;-93
2023/08/18 03:02:49;;;;;;;10.33;9.43;;;;;;;14.89;100.00;97762.38;6224281;28;20263;-95
2023/08/18 03:06:09;;;;;;;9.90;9.07;;;;;;;14.77;100.00;97718.13;6212592;28;20247;-95
2023/08/18 03:09:26;;;;;;;11.13;10.13;;;;;;;15.76;100.00;97880.50;6243893;28;20260;-93
2023/08/18 03:12:49;;;;;;;10.40;9.47;;;;;;;14.77;100.00;97744.94;6233571;28;20296;-94
2023/08/18 03:16:06;;;;;;;;;;;;;;;;;;;;;
2023/08/18 03:19:17;;;;;;;9.63;8.83;;;;;;;14.89;100.00;97750.84;6261176;28;20234;-93
2023/08/18 03:22:32;;;;;;;9.63;8.83;;;;;;;14.76;100.00;97740.66;6245776;28;20235;-92
2023/08/18 03:25:40;;;;;;;12.17;10.60;;;;;;;15.18;100.00;97807.47;6221054;28;20232;-92
2023/08/18 03:28:52;;;;;;;11.27;10.33;;;;;;;15.03;100.00;97794.06;6219684;28;20232;-93
2023/08/18 03:31:57;;;;;;;11.60;10.60;;;;;;;14.59;100.00;97722.94;6218084;28;20234;-93
2023/08/18 03:35:07;;;;;;;12.10;10.13;;;;;;;14.65;100.00;97745.19;6233543;28;20235;-93
2023/08/18 03:38:46;;;;;;;11.43;10.43;;;;;;;14.83;100.00;97784.91;6221068;28;20256;-95
2023/08/18 03:42:18;;;;;;;;;;;;;;;;;;;;;
2023/08/18 03:45:36;;;;;;;11.20;10.20;;;;;;;15.73;100.00;97915.97;6232621;28;20273;-94
2023/08/18 03:48:51;;;;;;;11.07;10.13;;;;;;;14.29;100.00;97717.50;6225100;28;20212;-93
2023/08/18 03:52:20;;;;;;;11.63;10.63;;;;;;;15.17;100.00;97852.28;6218469;28;20224;-95
2023/08/18 03:55:59;;;;;;;12.07;10.97;;;;;;;14.44;100.00;97728.25;6240187;28;20235;-94
2023/08/18 03:59:32;;;;;;;11.23;10.23;;;;;;;15.66;100.00;97928.84;6236785;28;20268;-95
2023/08/18 04:02:57;;;;;;;9.87;9.07;;;;;;;14.42;100.00;97770.56;6232955;28;20228;-94
2023/08/18 04:06:20;;;;;;;10.10;9.20;;;;;;;15.68;100.00;97940.94;6199199;28;20220;-94
2023/08/18 04:09:56;;;;;;;11.43;10.43;;;;;;;14.46;100.00;97764.44;6240714;28;20242;-95
2023/08/18 04:13:34;;;;;;;13.20;12.07;;;;;;;14.49;100.00;97747.06;6239803;28;20240;-94
2023/08/18 04:16:59;;;;;;;11.50;10.40;;;;;;;15.04;100.00;97842.06;6209069;28;20246;-95
2023/08/18 04:20:35;;;;;;;12.17;11.00;;;;;;;14.60;100.00;97774.69;6226158;28;20234;-94
2023/08/18 04:24:00;;;;;;;13.00;11.83;;;;;;;14.78;100.00;97827.00;6220445;28;20304;-95
2023/08/18 04:27:06;;;;;;;12.90;11.67;;;;;;;14.65;100.00;97782.72;6226526;28;20228;-95
2023/08/18 04:30:32;;;;;;;13.40;11.97;;;;;;;15.61;100.00;97924.25;6219451;28;20235;-96
2023/08/18 04:34:47;;;;;;;11.73;10.73;;;;;;;15.03;100.00;97829.75;6230595;28;20234;-96
2023/08/18 04:38:34;;;;;;;12.30;11.13;;;;;;;15.23;100.00;97853.91;6251054;28;20207;-94
2023/08/18 04:42:04;;;;;;;10.97;10.07;;;;;;;14.80;100.00;97776.59;6234622;28;20203;-95
2023/08/18 04:45:59;;;;;;;12.83;11.53;;;;;;;15.43;100.00;97857.69;6247172;28;20193;-95
2023/08/18 04:50:29;;;;;;;12.43;11.33;;;;;;;16.16;100.00;97962.16;6235697;28;20204;-94
2023/08/18 04:59:30;;;;;;;;;;;;;;;;;;;;;
2023/08/18 05:03:57;;;;;;;11.33;10.33;;;;;;;14.99;100.00;97807.19;6109875;29;20201;-95
2023/08/18 05:08:24;;;;;;;13.10;12.00;;;;;;;16.30;100.00;97979.31;6039712;29;20195;-94
2023/08/18 05:12:22;;;;;;;12.83;11.20;;;;;;;15.00;100.00;97798.06;5971985;29;20243;-95
2023/08/18 05:20:58;;;;;;;;;;;;;;;;;;;;;
2023/08/18 06:02:05;;;;;;;11.80;10.80;;;;;;;16.82;100.00;97983.53;6572401;23;20236;-45
2023/08/18 06:05:12;;;;;;;12.07;11.03;;;;;;;16.96;100.00;97992.63;6231143;28;20232;-46
2023/08/18 06:08:15;;;;;;;12.90;11.80;;;;;;;16.97;100.00;97974.59;6226044;28;20762;-47
2023/08/18 06:11:17;;;;;;;12.73;11.53;;;;;;;17.13;100.00;97994.97;6230616;28;20227;-48
2023/08/18 06:14:25;;;;;;;12.53;11.43;;;;;;;17.22;100.00;97992.53;6232441;28;20723;-47
2023/08/18 06:17:29;;;;;;;11.17;10.27;;;;;;;17.31;100.00;97995.44;6223749;28;20279;-49
2023/08/18 06:20:31;;;;;;;13.07;11.87;;;;;;;17.38;100.00;97996.75;6230984;28;20717;-46
2023/08/18 06:23:33;;;;;;;12.17;11.17;;;;;;;17.47;100.00;97995.06;6230294;28;20235;-50
2023/08/18 06:26:36;;;;;;;12.30;11.20;;;;;;;17.53;100.00;97993.94;6224422;28;20631;-49
2023/08/18 06:29:38;;;;;;;11.83;10.83;;;;;;;17.60;100.00;98000.94;6230771;28;20232;-50
2023/08/18 06:32:45;;;;;;;12.50;11.43;;;;;;;17.61;100.00;97986.38;6229753;28;20322;-46
2023/08/18 06:35:49;;;;;;;13.20;12.10;;;;;;;17.68;100.00;97981.47;6227829;28;20599;-49
2023/08/18 06:38:52;;;;;;;12.00;11.00;;;;;;;17.80;100.00;97981.97;6230161;28;20236;-49
2023/08/18 06:41:55;;;;;;;13.43;12.23;;;;;;;17.99;100.00;97993.69;6230943;28;20236;-46
2023/08/18 06:44:58;;;;;;;12.80;11.60;;;;;;;18.12;100.00;97989.50;6229590;28;20231;-46
2023/08/18 06:48:02;;;;;;;12.10;11.10;;;;;;;18.16;100.00;97978.97;6228489;28;20238;-49
2023/08/18 06:51:06;;;;;;;12.10;11.10;;;;;;;18.32;100.00;97977.72;6229969;28;20358;-46
2023/08/18 06:54:09;;;;;;;10.73;9.83;;;;;;;18.50;100.00;97995.91;6228035;28;20220;-51
2023/08/18 06:57:11;;;;;;;13.33;12.13;;;;;;;18.65;100.00;97986.03;6231723;28;20216;-48
2023/08/18 07:00:15;;;;;;;11.53;10.53;;;;;;;18.80;100.00;97986.69;6231756;28;20849;-49
2023/08/18 07:03:20;;;;;;;11.20;10.30;;;;;;;18.97;100.00;97993.56;6254218;28;20224;-47
2023/08/18 07:06:25;;;;;;;11.27;10.37;;;;;;;19.11;100.00;97991.72;6257293;28;20218;-49
2023/08/18 07:09:28;;;;;;;12.53;11.43;;;;;;;19.29;100.00;98003.66;6250396;28;20224;-47
2023/08/18 07:12:32;;;;;;;12.27;11.17;;;;;;;19.42;100.00;98002.16;6236450;28;20223;-48
2023/08/18 07:15:34;;;;;;;12.00;10.90;;;;;;;19.53;100.00;97995.50;6235965;28;20230;-48
2023/08/18 07:18:41;;;;;;;11.20;10.30;;;;;;;19.67;100.00;98004.53;6251941;28;20227;-51
2023/08/18 07:21:46;;;;;;;11.87;10.97;;;;;;;19.78;100.00;98003.28;6236837;28;20264;-51
2023/08/18 07:24:51;;;;;;;11.37;10.47;;;;;;;19.94;100.00;98008.44;6251204;28;20231;-48
2023/08/18 07:27:54;;;;;;;11.23;10.33;;;;;;;20.03;100.00;98003.97;6251309;28;20231;-45
2023/08/18 07:31:04;;;;;;;11.53;10.53;;;;;;;20.22;100.00;97998.53;6236256;28;20235;-46
2023/08/18 07:34:07;;;;;;;11.00;10.10;;;;;;;20.34;100.00;98006.97;6251511;28;20258;-51
2023/08/18 07:37:11;;;;;;;12.07;10.97;;;;;;;20.46;100.00;98010.00;6252723;28;20712;-48
2023/08/18 07:40:17;;;;;;;11.20;10.30;;;;;;;20.48;100.00;97997.00;6250456;28;20316;-49
2023/08/18 07:43:22;;;;;;;11.37;10.43;;;;;;;20.74;100.00;98016.31;6234719;28;20844;-48
2023/08/18 07:46:28;;;;;;;10.80;9.73;;;;;;;20.84;100.00;98010.69;6252921;28;20234;-49
2023/08/18 07:49:30;;;;;;;10.40;9.37;;;;;;;20.98;100.00;98016.09;6234387;28;20239;-51
2023/08/18 07:52:34;;;;;;;10.23;9.23;;;;;;;21.14;100.00;98022.03;6253008;28;20770;-48
2023/08/18 07:55:42;;;;;;;9.97;8.80;;;;;;;21.26;100.00;98011.47;6234881;28;20237;-51
2023/08/18 07:58:58;;;;;;;10.43;9.53;;;;;;;21.46;100.00;98014.88;6252711;28;20262;-48
2023/08/18 08:02:03;;;;;;;11.10;10.00;;;;;;;21.73;96.79;98019.44;6251710;28;20246;-46
2023/08/18 08:05:28;;;;;;;10.43;9.53;;;;;;;21.94;96.91;98015.13;6249808;28;20227;-47
2023/08/18 08:08:36;;;;;;;10.20;9.30;;;;;;;22.14;93.97;98014.69;6251971;28;20227;-48
2023/08/18 08:11:46;;;;;;;9.63;8.70;;;;;;;22.37;94.22;98017.38;6249859;28;20227;-49
2023/08/18 08:14:51;;;;;;;10.83;9.83;;;;;;;22.44;86.92;98023.16;6252686;28;20810;-48
2023/08/18 08:18:00;;;;;;;10.50;9.53;;;;;;;22.71;82.83;98011.34;6253278;28;20724;-47
2023/08/18 08:21:08;;;;;;;9.67;8.77;;;;;;;22.92;82.57;98011.59;6251050;28;20242;-50
2023/08/18 08:24:24;;;;;;;9.68;8.77;;;;;;;23.17;83.11;98010.88;6251445;28;20215;-48
2023/08/18 08:27:28;;;;;;;9.07;8.20;;;;;;;23.33;83.13;98002.28;6228464;28;20276;-49
2023/08/18 08:30:30;;;;;;;10.25;9.05;;;;;;;23.38;80.89;98011.09;6252317;28;20316;-47
2023/08/18 08:33:36;;;;;;;9.10;8.30;;;;;;;23.42;80.76;98003.91;6237760;28;20234;-48
2023/08/18 08:36:38;;;;;;;8.80;7.97;;;;;;;23.33;79.23;98005.00;6245604;28;20265;-49
2023/08/18 08:39:40;;;;;;;9.60;8.70;;;;;;;23.21;80.24;98000.19;6253041;28;20245;-47
2023/08/18 08:42:49;;;;;;;9.30;8.40;;;;;;;23.11;80.11;98009.44;6251295;28;20364;-46
2023/08/18 08:45:52;;;;;;;10.77;9.68;;;;;;;23.08;82.20;98014.69;6243909;28;20264;-43
2023/08/18 08:49:02;;;;;;;10.90;9.88;;;;;;;23.17;78.17;98015.53;6251597;28;20239;-46
2023/08/18 08:52:09;;;;;;;9.85;8.95;;;;;;;23.20;80.08;98011.34;6239829;28;20304;-59
2023/08/18 08:55:13;;;;;;;9.07;8.27;;;;;;;23.25;80.41;98019.38;6251224;28;20723;-54
2023/08/18 08:58:16;;;;;;;10.38;8.88;;;;;;;23.20;80.78;98011.34;6251567;28;20578;-54
2023/08/18 09:01:20;;;;;;;9.40;8.50;;;;;;;23.29;80.02;98014.91;6249976;28;20231;-58
2023/08/18 09:04:23;;;;;;;9.32;8.43;;;;;;;23.36;78.39;98015.25;6256271;28;20246;-56
2023/08/18 09:07:25;;;;;;;9.70;8.80;;;;;;;23.45;76.00;98013.34;6253815;28;20389;-55
2023/08/18 09:10:27;;;;;;;9.55;8.65;;;;;;;23.47;76.45;98007.59;6251402;28;20261;-57
2023/08/18 09:13:29;;;;;;;9.25;8.45;;;;;;;23.58;76.85;98020.53;6255888;28;20296;-59
2023/08/18 09:16:32;;;;;;;9.73;8.73;;;;;;;23.56;76.51;97995.59;6253798;28;20243;-57
2023/08/18 09:19:34;;;;;;;9.45;8.52;;;;;;;23.75;76.33;98019.00;6251230;28;20227;-57
2023/08/18 09:22:36;;;;;;;8.70;8.00;;;;;;;23.68;77.72;98020.25;6240555;28;20231;-46
2023/08/18 09:25:38;;;;;;;9.13;8.32;;;;;;;23.57;79.28;98010.78;6250683;28;20715;-49
2023/08/18 09:28:40;;;;;;;8.45;7.75;;;;;;;23.46;79.38;98016.88;6246358;28;20234;-46
2023/08/18 09:31:46;;;;;;;8.98;8.18;;;;;;;23.33;80.57;98010.44;6251917;28;20609;-47
2023/08/18 09:34:50;;;;;;;9.07;8.18;;;;;;;23.26;81.24;98010.91;6250138;28;20238;-51
2023/08/18 09:37:58;;;;;;;9.25;8.48;;;;;;;23.22;82.24;98007.22;6231990;28;20261;-50
2023/08/18 09:41:01;;;;;;;9.15;8.25;;;;;;;23.22;83.42;98001.78;6235800;28;20239;-48
2023/08/18 09:44:03;;;;;;;9.55;8.75;;;;;;;23.25;85.47;98003.88;6254049;28;20270;-50
2023/08/18 09:47:06;;;;;;;11.45;10.38;;;;;;;23.15;85.54;98004.16;6255263;28;20238;-50
2023/08/18 09:50:20;;;;;;;15.15;10.32;;;;;;;22.80;88.36;97997.78;6254811;28;20231;-51
2023/08/18 09:53:32;;;;;;;10.25;9.35;;;;;;;22.80;88.35;98006.72;6254012;28;20224;-51
2023/08/18 09:56:38;;;;;;;12.50;11.40;;;;;;;22.71;90.43;98005.91;6254480;28;20231;-46
2023/08/18 09:59:57;;;;;;;11.77;10.63;;;;;;;22.59;92.03;98003.75;6236732;28;20231;-48
2023/08/18 10:03:03;;;;;;;11.38;10.38;;;;;;;22.60;93.36;98008.06;6252209;28;20227;-47
2023/08/18 10:06:10;;;;;;;12.95;11.63;;;;;;;22.60;93.32;98015.41;6254716;28;20727;-49
2023/08/18 10:09:14;;;;;;;13.00;11.70;;;;;;;22.44;94.65;98000.66;6256082;28;20250;-50
2023/08/18 10:12:16;;;;;;;14.87;13.40;;;;;;;22.29;95.42;98009.97;6254890;28;20222;-49
2023/08/18 10:15:20;;;;;;;14.17;11.83;;;;;;;22.17;97.33;98004.31;6254071;28;20214;-49
2023/08/18 10:18:24;;;;;;;14.27;12.00;;;;;;;22.04;98.73;98000.53;6255006;28;20305;-48
2023/08/18 10:21:27;;;;;;;16.03;14.53;;;;;;;21.98;100.00;97985.50;6253666;28;20233;-51
2023/08/18 10:24:35;;;;;;;19.23;17.17;;;;;;;21.82;100.00;97955.19;6255377;28;20230;-52
2023/08/18 10:27:40;;;;;;;18.53;16.87;;;;;;;22.08;100.00;97993.38;6252581;28;20728;-52
2023/08/18 10:30:50;;;;;;;15.53;13.93;;;;;;;22.19;100.00;97996.66;6250778;28;20292;-49
2023/08/18 10:33:53;;;;;;;16.30;14.87;;;;;;;22.29;100.00;97999.13;6254596;28;20727;-52
2023/08/18 10:36:59;;;;;;;17.80;16.17;;;;;;;22.34;100.00;97999.78;6255317;28;20320;-51
2023/08/18 10:40:08;;;;;;;19.05;17.13;;;;;;;22.42;100.00;97995.53;6250244;28;20275;-52
2023/08/18 10:43:15;;;;;;;17.07;15.47;;;;;;;22.44;100.00;97993.31;6255015;28;20317;-49
2023/08/18 10:46:18;;;;;;;18.10;16.43;;;;;;;22.44;100.00;97990.59;6250925;28;20262;-51
2023/08/18 10:49:23;;;;;;;15.47;14.17;;;;;;;22.51;100.00;97973.84;6253679;28;20589;-50
2023/08/18 10:52:30;;;;;;;15.18;13.80;;;;;;;22.70;100.00;97976.31;6252318;28;20233;-51
2023/08/18 10:55:36;;;;;;;18.10;16.35;;;;;;;22.87;100.00;97977.19;6240964;28;20349;-50
2023/08/18 10:58:39;;;;;;;16.00;14.65;;;;;;;23.08;100.00;97976.66;6234716;28;20857;-47
2023/08/18 11:01:42;;;;;;;16.48;14.88;;;;;;;23.27;100.00;97979.09;6236337;28;20239;-50
2023/08/18 11:04:45;;;;;;;15.20;13.85;;;;;;;23.38;100.00;97981.19;6254763;28;20735;-49
2023/08/18 11:07:50;;;;;;;13.27;12.00;;;;;;;23.43;96.22;97977.50;6253735;28;20238;-51
2023/08/18 11:10:53;;;;;;;12.95;11.85;;;;;;;23.43;92.87;97972.88;6252931;28;20486;-50
2023/08/18 11:13:55;;;;;;;13.30;12.20;;;;;;;23.39;90.78;97974.63;6253070;28;20720;-50
2023/08/18 11:16:59;;;;;;;12.68;11.40;;;;;;;23.36;91.15;97975.25;6236062;28;20377;-50
2023/08/18 11:20:01;;;;;;;13.30;10.63;;;;;;;23.31;91.67;97972.69;6253291;28;20851;-51
2023/08/18 11:23:04;;;;;;;12.27;10.93;;;;;;;23.35;91.54;97970.13;6253756;28;20607;-51
2023/08/18 11:26:07;;;;;;;12.65;11.38;;;;;;;23.39;92.67;97977.31;6253450;28;20242;-49
2023/08/18 11:29:14;;;;;;;12.43;11.38;;;;;;;23.35;91.97;97979.09;6257913;28;20231;-52
2023/08/18 11:32:16;;;;;;;11.93;10.93;;;;;;;23.35;92.90;97976.38;6236628;28;20298;-51
2023/08/18 11:35:19;;;;;;;13.00;11.90;;;;;;;23.31;93.68;97980.84;6251150;28;20713;-49
2023/08/18 11:38:21;;;;;;;12.70;11.60;;;;;;;23.31;93.29;97975.41;6254241;28;20295;-49
2023/08/18 11:41:24;;;;;;;13.70;12.50;;;;;;;23.36;94.70;97966.31;6252776;28;20257;-48
2023/08/18 11:44:26;;;;;;;13.45;12.35;;;;;;;23.58;93.05;97959.91;6253460;28;20880;-51
2023/08/18 11:47:30;;;;;;;12.40;11.30;;;;;;;23.79;89.53;97962.81;6252443;28;20653;-51
2023/08/18 11:50:38;;;;;;;12.25;11.15;;;;;;;23.86;87.15;97958.50;6252876;28;20251;-50
2023/08/18 11:53:44;;;;;;;12.52;11.40;;;;;;;23.83;89.30;97963.78;6250781;28;20231;-51
2023/08/18 11:56:50;;;;;;;13.48;12.20;;;;;;;23.72;89.41;97960.59;6252377;28;20303;-51
2023/08/18 11:59:54;;;;;;;12.40;11.30;;;;;;;23.77;89.93;97957.69;6251857;28;20966;-50
2023/08/18 12:03:03;;;;;;;12.13;11.18;;;;;;;23.84;91.98;97959.94;6227539;28;20836;-50
2023/08/18 12:06:23;;;;;;;12.93;11.80;;;;;;;23.90;91.16;97959.47;6231844;28;20344;-51
2023/08/18 12:09:26;;;;;;;12.63;11.45;;;;;;;23.94;91.11;97943.28;6227297;28;20220;-52
2023/08/18 12:12:30;;;;;;;12.18;11.18;;;;;;;24.16;92.47;97956.69;6224022;28;20231;-51
2023/08/18 12:15:36;;;;;;;12.90;11.80;;;;;;;24.23;91.98;97936.31;6210749;28;20773;-50
2023/08/18 12:18:43;;;;;;;12.80;11.60;;;;;;;24.32;90.99;97951.53;6227302;28;20236;-53
2023/08/18 12:21:46;;;;;;;12.68;11.38;;;;;;;24.36;90.06;97952.50;6227548;28;20239;-51
2023/08/18 12:24:48;;;;;;;11.80;10.80;;;;;;;24.43;88.75;97949.25;6227457;28;20615;-57
2023/08/18 12:27:52;;;;;;;12.25;10.95;;;;;;;24.57;89.28;97949.06;6226231;28;20228;-53
2023/08/18 12:30:55;;;;;;;12.13;11.10;;;;;;;24.53;90.41;97945.38;6226621;28;20234;-54
2023/08/18 12:33:58;;;;;;;13.13;11.88;;;;;;;24.58;86.79;97937.03;6230136;28;20282;-54
2023/08/18 12:37:00;;;;;;;12.13;11.02;;;;;;;24.60;85.91;97948.41;6224260;28;20447;-54
2023/08/18 12:40:06;;;;;;;11.93;10.90;;;;;;;24.61;84.07;97944.56;6227004;28;20236;-52
2023/08/18 12:43:09;;;;;;;10.95;10.05;;;;;;;24.59;77.81;97934.00;6226614;28;20235;-50
2023/08/18 12:46:11;;;;;;;10.80;9.48;;;;;;;24.78;73.52;97938.22;6228130;28;20326;-51
2023/08/18 12:49:14;;;;;;;11.10;10.13;;;;;;;24.86;75.10;97934.66;6228238;28;20239;-51
2023/08/18 12:52:18;;;;;;;10.73;9.80;;;;;;;24.87;78.92;97931.59;6226828;28;20717;-49
2023/08/18 12:55:20;;;;;;;12.00;10.90;;;;;;;24.89;81.84;97940.25;6216631;28;20262;-52
2023/08/18 12:58:23;;;;;;;12.40;11.10;;;;;;;24.85;84.88;97927.63;6226930;28;20239;-50
2023/08/18 13:01:26;;;;;;;11.35;10.45;;;;;;;24.96;83.67;97934.28;6227448;28;20231;-53
2023/08/18 13:04:29;;;;;;;12.32;10.43;;;;;;;25.01;83.78;97938.75;6224731;28;20240;-51
2023/08/18 13:07:32;;;;;;;10.05;9.15;;;;;;;25.02;79.79;97935.69;6225182;28;20232;-53
2023/08/18 13:10:34;;;;;;;10.00;9.10;;;;;;;25.05;80.22;97934.25;6192330;28;20331;-51
2023/08/18 13:13:38;;;;;;;10.07;7.65;;;;;;;25.07;73.83;97930.06;6223966;28;20365;-51
2023/08/18 13:16:43;;;;;;;10.00;8.23;;;;;;;25.10;72.92;97923.16;6212459;28;20553;-50
2023/08/18 13:19:50;;;;;;;8.55;7.85;;;;;;;25.08;73.71;97926.25;6210709;28;20247;-53
2023/08/18 13:23:03;;;;;;;9.27;8.10;;;;;;;25.00;72.86;97920.81;6204565;28;20247;-53
2023/08/18 13:26:12;;;;;;;11.27;7.75;;;;;;;24.97;71.94;97908.63;6192501;28;20724;-52
2023/08/18 13:29:32;;;;;;;8.88;8.07;;;;;;;24.98;74.36;97912.16;6173729;28;20641;-49
2023/08/18 13:32:43;;;;;;;8.52;7.72;;;;;;;24.96;75.33;97918.72;6191386;28;20239;-52
2023/08/18 13:36:23;;;;;;;9.48;7.97;;;;;;;24.95;73.95;97911.69;6157136;28;20236;-49
2023/08/18 13:39:37;;;;;;;8.32;7.53;;;;;;;25.01;74.16;97911.50;6183460;28;20238;-52
2023/08/18 13:42:43;;;;;;;8.27;7.47;;;;;;;25.03;73.88;97907.31;6220408;28;20244;-51
2023/08/18 13:46:03;;;;;;;8.90;8.20;;;;;;;25.07;77.00;97910.19;6192891;28;20235;-54
2023/08/18 13:49:09;;;;;;;9.30;8.40;;;;;;;25.07;78.35;97907.47;6204447;28;20227;-53
2023/08/18 13:52:16;;;;;;;9.07;8.27;;;;;;;24.99;79.84;97895.47;6188032;28;20264;-53
2023/08/18 13:55:19;;;;;;;9.15;8.27;;;;;;;25.05;79.95;97904.25;6215093;28;20231;-53
2023/08/18 13:58:22;;;;;;;9.93;8.55;;;;;;;25.06;79.99;97903.13;6228787;28;20370;-52
2023/08/18 14:01:25;;;;;;;8.70;7.32;;;;;;;25.30;68.40;97902.50;6229491;28;20227;-53
2023/08/18 14:04:28;;;;;;;8.80;7.22;;;;;;;25.30;65.81;97908.75;6229811;28;20239;-52
2023/08/18 14:07:30;;;;;;;7.63;6.93;;;;;;;25.17;66.33;97909.81;6253959;28;20326;-53
2023/08/18 14:10:33;;;;;;;7.70;7.05;;;;;;;25.10;66.96;97906.81;6250010;28;20227;-52
2023/08/18 14:13:39;;;;;;;7.68;7.07;;;;;;;24.88;69.09;97899.72;6250234;28;20636;-51
2023/08/18 14:16:42;;;;;;;8.38;7.68;;;;;;;24.71;71.06;97901.41;6251263;28;20223;-51
2023/08/18 14:19:45;;;;;;;7.90;7.20;;;;;;;24.62;72.45;97897.13;6253229;28;20235;-52
2023/08/18 14:22:50;;;;;;;8.10;7.40;;;;;;;24.49;74.18;97893.50;6251735;28;20728;-48
2023/08/18 14:25:53;;;;;;;7.90;7.10;;;;;;;24.32;75.94;97891.63;6252341;28;20231;-50
2023/08/18 14:28:56;;;;;;;7.88;7.13;;;;;;;24.17;76.48;97883.97;6253364;28;20242;-52
2023/08/18 14:31:58;;;;;;;8.32;7.53;;;;;;;24.09;78.18;97887.56;6250723;28;20281;-53
2023/08/18 14:35:04;;;;;;;8.45;7.63;;;;;;;24.00;79.39;97882.13;6255735;28;20767;-49
2023/08/18 14:38:06;;;;;;;9.65;8.32;;;;;;;23.94;79.63;97878.00;6248052;28;20235;-54
2023/08/18 14:41:08;;;;;;;8.82;8.02;;;;;;;23.91;80.61;97875.91;6255130;28;20719;-48
2023/08/18 14:44:11;;;;;;;9.07;8.15;;;;;;;23.90;81.47;97882.47;6252332;28;20223;-53
2023/08/18 14:47:14;;;;;;;9.32;8.38;;;;;;;23.88;82.03;97884.69;6254500;28;20222;-49
2023/08/18 14:50:16;;;;;;;8.65;7.80;;;;;;;23.92;82.59;97896.53;6250490;28;20230;-51
2023/08/18 14:53:19;;;;;;;10.30;8.20;;;;;;;23.93;82.65;97892.69;6253352;28;20234;-52
2023/08/18 14:56:21;;;;;;;8.68;7.88;;;;;;;23.86;83.14;97886.97;6254359;28;20238;-51
2023/08/18 14:59:24;;;;;;;8.48;7.78;;;;;;;23.89;83.13;97892.56;6253135;28;20340;-52
2023/08/18 15:02:27;;;;;;;9.98;8.77;;;;;;;23.86;83.76;97900.56;6233043;28;20578;-51
2023/08/18 15:05:30;;;;;;;8.73;7.40;;;;;;;23.84;83.72;97900.06;6216725;28;20255;-50
2023/08/18 15:08:33;;;;;;;9.27;8.05;;;;;;;23.79;83.28;97892.91;6210792;28;20342;-51
2023/08/18 15:11:37;;;;;;;9.45;8.25;;;;;;;23.73;83.40;97905.06;6229500;28;20366;-49
2023/08/18 15:14:39;;;;;;;8.88;8.07;;;;;;;23.63;83.90;97899.91;6225579;28;20370;-51
2023/08/18 15:17:42;;;;;;;10.43;8.60;;;;;;;23.58;85.18;97900.09;6227662;28;20244;-51
2023/08/18 15:20:47;;;;;;;9.45;8.65;;;;;;;23.54;84.14;97897.19;6229979;28;20228;-51
2023/08/18 15:23:53;;;;;;;9.43;8.50;;;;;;;23.56;83.74;97907.78;6223974;28;20239;-52
2023/08/18 15:26:55;;;;;;;9.77;8.90;;;;;;;23.51;85.01;97906.00;6226470;28;20322;-52
2023/08/18 15:29:57;;;;;;;8.93;8.13;;;;;;;23.48;84.73;97905.84;6228712;28;20285;-53
2023/08/18 15:33:00;;;;;;;8.75;7.95;;;;;;;23.42;85.06;97903.28;6227649;28;20232;-50
2023/08/18 15:36:03;;;;;;;8.65;7.95;;;;;;;23.36;85.60;97906.50;6228009;28;20231;-51
2023/08/18 15:39:06;;;;;;;8.35;7.65;;;;;;;23.28;86.34;97899.13;6228004;28;20215;-52
2023/08/18 15:42:08;;;;;;;9.98;8.38;;;;;;;23.12;86.51;97891.44;6227836;28;20250;-49
2023/08/18 15:45:15;;;;;;;10.52;8.48;;;;;;;23.11;87.27;97902.66;6227621;28;20247;-53
2023/08/18 15:48:25;;;;;;;10.55;8.40;;;;;;;23.02;88.27;97904.53;6225888;28;20232;-51
2023/08/18 15:51:28;;;;;;;10.10;9.18;;;;;;;22.95;88.66;97906.91;6228642;28;20215;-47
2023/08/18 15:54:30;;;;;;;10.40;9.25;;;;;;;22.91;89.52;97902.13;6228483;28;20230;-50